sensor_id;sensor_type;location;lat;lon;timestamp;temperature;humidity
20728;DHT22;10525;50.154;8.198;2023-01-30T00:00:03;0.20;99.90
20728;DHT22;10525;50.154;8.198;2023-01-30T00:02:30;0.20;99.90
20728;DHT22;10525;50.154;8.198;2023-01-30T00:04:57;0.30;99.90
20728;DHT22;10525;50.154;8.198;2023-01-30T00:07:23;0.30;99.90
20728;DHT22;10525;50.154;8.198;2023-01-30T00:09:50;0.30;99.90
20728;DHT22;10525;50.154;8.198;2023-01-30T00:12:18;0.30;99.90
20728;DHT22;10525;50.154;8.198;2023-01-30T00:14:45;0.30;99.90
20728;DHT22;10525;50.154;8.198;2023-01-30T00:17:11;0.30;99.90
20728;DHT22;10525;50.154;8.198;2023-01-30T00:19:38;0.30;99.90
20728;DHT22;10525;50.154;8.198;2023-01-30T00:22:05;0.30;99.90
20728;DHT22;10525;50.154;8.198;2023-01-30T00:24:31;0.30;99.90
20728;DHT22;10525;50.154;8.198;2023-01-30T00:26:58;0.30;99.90
20728;DHT22;10525;50.154;8.198;2023-01-30T00:29:26;0.30;99.90
20728;DHT22;10525;50.154;8.198;2023-01-30T00:31:53;0.30;99.90
20728;DHT22;10525;50.154;8.198;2023-01-30T00:34:19;0.40;99.90
20728;DHT22;10525;50.154;8.198;2023-01-30T00:36:46;0.40;99.90
20728;DHT22;10525;50.154;8.198;2023-01-30T00:39:13;0.40;99.90
20728;DHT22;10525;50.154;8.198;2023-01-30T00:41:39;0.40;99.90
20728;DHT22;10525;50.154;8.198;2023-01-30T00:44:23;0.40;99.90
20728;DHT22;10525;50.154;8.198;2023-01-30T00:47:09;0.40;99.90
20728;DHT22;10525;50.154;8.198;2023-01-30T00:49:36;0.40;99.90
20728;DHT22;10525;50.154;8.198;2023-01-30T00:52:04;0.40;99.90
20728;DHT22;10525;50.154;8.198;2023-01-30T00:54:31;0.40;99.90
20728;DHT22;10525;50.154;8.198;2023-01-30T00:56:57;0.40;99.90
20728;DHT22;10525;50.154;8.198;2023-01-30T00:59:24;0.40;99.90
20728;DHT22;10525;50.154;8.198;2023-01-30T01:01:51;0.50;99.90
20728;DHT22;10525;50.154;8.198;2023-01-30T01:04:19;0.50;99.90
20728;DHT22;10525;50.154;8.198;2023-01-30T01:06:46;0.50;99.90
20728;DHT22;10525;50.154;8.198;2023-01-30T01:09:12;0.50;99.90
20728;DHT22;10525;50.154;8.198;2023-01-30T01:11:39;0.50;99.90
20728;DHT22;10525;50.154;8.198;2023-01-30T01:14:06;0.60;99.90
20728;DHT22;10525;50.154;8.198;2023-01-30T01:16:33;0.60;99.90
20728;DHT22;10525;50.154;8.198;2023-01-30T01:19:01;0.60;99.90
20728;DHT22;10525;50.154;8.198;2023-01-30T01:21:29;0.60;99.90
20728;DHT22;10525;50.154;8.198;2023-01-30T01:23:57;0.60;99.90
20728;DHT22;10525;50.154;8.198;2023-01-30T01:26:25;0.70;99.90
20728;DHT22;10525;50.154;8.198;2023-01-30T01:28:54;0.60;99.90
20728;DHT22;10525;50.154;8.198;2023-01-30T01:31:20;0.60;99.90
20728;DHT22;10525;50.154;8.198;2023-01-30T01:33:48;0.60;99.90
20728;DHT22;10525;50.154;8.198;2023-01-30T01:36:15;0.60;99.90
20728;DHT22;10525;50.154;8.198;2023-01-30T01:38:43;0.70;99.90
20728;DHT22;10525;50.154;8.198;2023-01-30T01:41:11;0.70;99.90
20728;DHT22;10525;50.154;8.198;2023-01-30T01:43:57;0.60;99.90
20728;DHT22;10525;50.154;8.198;2023-01-30T01:46:26;0.70;99.90
20728;DHT22;10525;50.154;8.198;2023-01-30T01:48:55;0.70;99.90
20728;DHT22;10525;50.154;8.198;2023-01-30T01:51:27;0.70;99.90
20728;DHT22;10525;50.154;8.198;2023-01-30T01:54:00;0.80;99.90
20728;DHT22;10525;50.154;8.198;2023-01-30T01:56:29;0.80;99.90
20728;DHT22;10525;50.154;8.198;2023-01-30T01:59:01;0.80;99.90
20728;DHT22;10525;50.154;8.198;2023-01-30T02:01:29;0.80;99.90
20728;DHT22;10525;50.154;8.198;2023-01-30T02:03:59;0.90;99.90
20728;DHT22;10525;50.154;8.198;2023-01-30T02:06:28;0.80;99.90
20728;DHT22;10525;50.154;8.198;2023-01-30T02:08:58;0.90;99.90
20728;DHT22;10525;50.154;8.198;2023-01-30T02:11:33;1.00;99.90
20728;DHT22;10525;50.154;8.198;2023-01-30T02:14:02;1.00;99.90
20728;DHT22;10525;50.154;8.198;2023-01-30T02:16:29;1.00;99.90
20728;DHT22;10525;50.154;8.198;2023-01-30T02:18:56;1.00;99.90
20728;DHT22;10525;50.154;8.198;2023-01-30T02:21:52;1.10;99.90
20728;DHT22;10525;50.154;8.198;2023-01-30T02:24:39;1.00;99.90
20728;DHT22;10525;50.154;8.198;2023-01-30T02:27:17;1.00;99.90
20728;DHT22;10525;50.154;8.198;2023-01-30T02:30:01;1.10;99.90
20728;DHT22;10525;50.154;8.198;2023-01-30T02:32:38;1.10;99.90
20728;DHT22;10525;50.154;8.198;2023-01-30T02:35:14;1.00;99.90
20728;DHT22;10525;50.154;8.198;2023-01-30T02:37:51;1.00;99.90
20728;DHT22;10525;50.154;8.198;2023-01-30T02:40:33;1.00;99.90
20728;DHT22;10525;50.154;8.198;2023-01-30T02:43:10;1.10;99.90
20728;DHT22;10525;50.154;8.198;2023-01-30T02:45:44;1.10;99.90
20728;DHT22;10525;50.154;8.198;2023-01-30T02:48:22;1.10;99.90
20728;DHT22;10525;50.154;8.198;2023-01-30T02:50:56;1.10;99.90
20728;DHT22;10525;50.154;8.198;2023-01-30T02:53:23;1.10;99.90
20728;DHT22;10525;50.154;8.198;2023-01-30T02:55:50;1.10;99.90
20728;DHT22;10525;50.154;8.198;2023-01-30T02:58:18;1.10;99.90
20728;DHT22;10525;50.154;8.198;2023-01-30T03:01:13;1.10;99.90
20728;DHT22;10525;50.154;8.198;2023-01-30T03:03:58;1.10;99.90
20728;DHT22;10525;50.154;8.198;2023-01-30T03:06:39;1.10;99.90
20728;DHT22;10525;50.154;8.198;2023-01-30T03:09:15;1.10;99.90
20728;DHT22;10525;50.154;8.198;2023-01-30T03:11:48;1.10;99.90
20728;DHT22;10525;50.154;8.198;2023-01-30T03:14:26;1.10;99.90
20728;DHT22;10525;50.154;8.198;2023-01-30T03:16:56;1.10;99.90
20728;DHT22;10525;50.154;8.198;2023-01-30T03:19:27;1.10;99.90
20728;DHT22;10525;50.154;8.198;2023-01-30T03:21:54;1.20;99.90
20728;DHT22;10525;50.154;8.198;2023-01-30T03:24:21;1.10;99.90
20728;DHT22;10525;50.154;8.198;2023-01-30T03:26:53;1.20;99.90
20728;DHT22;10525;50.154;8.198;2023-01-30T03:29:20;1.20;99.90
20728;DHT22;10525;50.154;8.198;2023-01-30T03:31:46;1.20;99.90
20728;DHT22;10525;50.154;8.198;2023-01-30T03:34:13;1.20;99.90
20728;DHT22;10525;50.154;8.198;2023-01-30T03:36:41;1.20;99.90
20728;DHT22;10525;50.154;8.198;2023-01-30T03:39:08;1.20;99.90
20728;DHT22;10525;50.154;8.198;2023-01-30T03:41:34;1.20;99.90
20728;DHT22;10525;50.154;8.198;2023-01-30T03:44:01;1.10;99.90
20728;DHT22;10525;50.154;8.198;2023-01-30T03:46:28;1.20;99.90
20728;DHT22;10525;50.154;8.198;2023-01-30T03:48:54;1.10;99.90
20728;DHT22;10525;50.154;8.198;2023-01-30T03:51:21;1.20;99.90
20728;DHT22;10525;50.154;8.198;2023-01-30T03:53:49;1.20;99.90
20728;DHT22;10525;50.154;8.198;2023-01-30T03:56:16;1.20;99.90
20728;DHT22;10525;50.154;8.198;2023-01-30T03:58:42;1.30;99.90
20728;DHT22;10525;50.154;8.198;2023-01-30T04:01:09;1.30;99.90
20728;DHT22;10525;50.154;8.198;2023-01-30T04:03:36;1.30;99.90
20728;DHT22;10525;50.154;8.198;2023-01-30T04:06:03;1.40;99.90
20728;DHT22;10525;50.154;8.198;2023-01-30T04:08:29;1.40;99.90
20728;DHT22;10525;50.154;8.198;2023-01-30T04:10:57;1.40;99.90
20728;DHT22;10525;50.154;8.198;2023-01-30T04:13:24;1.50;99.90
20728;DHT22;10525;50.154;8.198;2023-01-30T04:15:51;1.50;99.90
20728;DHT22;10525;50.154;8.198;2023-01-30T04:18:17;1.60;99.90
20728;DHT22;10525;50.154;8.198;2023-01-30T04:20:44;1.60;99.90
20728;DHT22;10525;50.154;8.198;2023-01-30T04:23:11;1.60;99.90
20728;DHT22;10525;50.154;8.198;2023-01-30T04:25:37;1.60;99.90
20728;DHT22;10525;50.154;8.198;2023-01-30T04:28:05;1.60;99.90
20728;DHT22;10525;50.154;8.198;2023-01-30T04:30:32;1.60;99.90
20728;DHT22;10525;50.154;8.198;2023-01-30T04:32:59;1.60;99.90
20728;DHT22;10525;50.154;8.198;2023-01-30T04:35:25;1.60;99.90
20728;DHT22;10525;50.154;8.198;2023-01-30T04:37:52;1.70;99.90
20728;DHT22;10525;50.154;8.198;2023-01-30T04:40:19;1.60;99.90
20728;DHT22;10525;50.154;8.198;2023-01-30T04:42:45;1.70;99.90
20728;DHT22;10525;50.154;8.198;2023-01-30T04:45:13;1.60;99.90
20728;DHT22;10525;50.154;8.198;2023-01-30T04:47:40;1.70;99.90
20728;DHT22;10525;50.154;8.198;2023-01-30T04:50:08;1.70;99.90
20728;DHT22;10525;50.154;8.198;2023-01-30T04:52:35;1.70;99.90
20728;DHT22;10525;50.154;8.198;2023-01-30T04:55:02;1.70;99.90
20728;DHT22;10525;50.154;8.198;2023-01-30T04:57:29;1.70;99.90
20728;DHT22;10525;50.154;8.198;2023-01-30T04:59:55;1.80;99.90
20728;DHT22;10525;50.154;8.198;2023-01-30T05:02:23;1.70;99.90
20728;DHT22;10525;50.154;8.198;2023-01-30T05:04:50;1.80;99.90
20728;DHT22;10525;50.154;8.198;2023-01-30T05:07:17;1.80;99.90
20728;DHT22;10525;50.154;8.198;2023-01-30T05:09:44;1.80;99.90
20728;DHT22;10525;50.154;8.198;2023-01-30T05:12:10;1.90;99.90
20728;DHT22;10525;50.154;8.198;2023-01-30T05:14:37;1.80;99.90
20728;DHT22;10525;50.154;8.198;2023-01-30T05:17:05;1.80;99.90
20728;DHT22;10525;50.154;8.198;2023-01-30T05:19:33;1.90;99.90
20728;DHT22;10525;50.154;8.198;2023-01-30T05:22:00;1.90;99.90
20728;DHT22;10525;50.154;8.198;2023-01-30T05:24:27;1.90;99.90
20728;DHT22;10525;50.154;8.198;2023-01-30T05:26:53;1.90;99.90
20728;DHT22;10525;50.154;8.198;2023-01-30T05:29:20;1.90;99.90
20728;DHT22;10525;50.154;8.198;2023-01-30T05:31:47;1.90;99.90
20728;DHT22;10525;50.154;8.198;2023-01-30T05:34:13;1.90;99.90
20728;DHT22;10525;50.154;8.198;2023-01-30T05:36:41;1.90;99.90
20728;DHT22;10525;50.154;8.198;2023-01-30T05:39:08;1.90;99.90
20728;DHT22;10525;50.154;8.198;2023-01-30T05:41:35;1.90;99.90
20728;DHT22;10525;50.154;8.198;2023-01-30T05:44:01;1.80;99.90
20728;DHT22;10525;50.154;8.198;2023-01-30T05:46:28;1.90;99.90
20728;DHT22;10525;50.154;8.198;2023-01-30T05:48:55;1.90;99.90
20728;DHT22;10525;50.154;8.198;2023-01-30T05:51:23;1.90;99.90
20728;DHT22;10525;50.154;8.198;2023-01-30T05:53:53;1.80;99.90
20728;DHT22;10525;50.154;8.198;2023-01-30T05:56:20;1.70;99.90
20728;DHT22;10525;50.154;8.198;2023-01-30T05:58:50;1.80;99.90
20728;DHT22;10525;50.154;8.198;2023-01-30T06:01:18;1.70;99.90
20728;DHT22;10525;50.154;8.198;2023-01-30T06:03:45;1.80;99.90
20728;DHT22;10525;50.154;8.198;2023-01-30T06:06:12;1.80;99.90
20728;DHT22;10525;50.154;8.198;2023-01-30T06:08:38;1.80;99.90
20728;DHT22;10525;50.154;8.198;2023-01-30T06:11:08;1.80;99.90
20728;DHT22;10525;50.154;8.198;2023-01-30T06:13:35;1.80;99.90
20728;DHT22;10525;50.154;8.198;2023-01-30T06:16:03;1.80;99.90
20728;DHT22;10525;50.154;8.198;2023-01-30T06:18:30;1.90;99.90
20728;DHT22;10525;50.154;8.198;2023-01-30T06:20:56;2.00;99.90
20728;DHT22;10525;50.154;8.198;2023-01-30T06:23:23;2.00;99.90
20728;DHT22;10525;50.154;8.198;2023-01-30T06:25:51;2.00;99.90
20728;DHT22;10525;50.154;8.198;2023-01-30T06:28:20;2.00;99.90
20728;DHT22;10525;50.154;8.198;2023-01-30T06:30:47;2.00;99.90
20728;DHT22;10525;50.154;8.198;2023-01-30T06:33:14;2.00;99.90
20728;DHT22;10525;50.154;8.198;2023-01-30T06:35:42;2.00;99.90
20728;DHT22;10525;50.154;8.198;2023-01-30T06:38:10;2.00;99.90
20728;DHT22;10525;50.154;8.198;2023-01-30T06:40:39;2.00;99.90
20728;DHT22;10525;50.154;8.198;2023-01-30T06:43:06;2.10;99.90
20728;DHT22;10525;50.154;8.198;2023-01-30T06:45:34;2.10;99.90
20728;DHT22;10525;50.154;8.198;2023-01-30T06:48:01;2.10;99.90
20728;DHT22;10525;50.154;8.198;2023-01-30T06:50:28;2.10;99.90
20728;DHT22;10525;50.154;8.198;2023-01-30T06:52:56;2.10;99.90
20728;DHT22;10525;50.154;8.198;2023-01-30T06:55:25;2.10;99.90
20728;DHT22;10525;50.154;8.198;2023-01-30T06:58:00;2.20;99.90
20728;DHT22;10525;50.154;8.198;2023-01-30T07:00:28;2.20;99.90
20728;DHT22;10525;50.154;8.198;2023-01-30T07:02:56;2.20;99.90
20728;DHT22;10525;50.154;8.198;2023-01-30T07:05:23;2.10;99.90
20728;DHT22;10525;50.154;8.198;2023-01-30T07:07:49;2.10;99.90
20728;DHT22;10525;50.154;8.198;2023-01-30T07:10:16;2.10;99.90
20728;DHT22;10525;50.154;8.198;2023-01-30T07:12:44;2.20;99.90
20728;DHT22;10525;50.154;8.198;2023-01-30T07:15:11;2.20;99.90
20728;DHT22;10525;50.154;8.198;2023-01-30T07:17:38;2.20;99.90
20728;DHT22;10525;50.154;8.198;2023-01-30T07:20:08;2.30;99.90
20728;DHT22;10525;50.154;8.198;2023-01-30T07:22:35;2.20;99.90
20728;DHT22;10525;50.154;8.198;2023-01-30T07:25:03;2.20;99.90
20728;DHT22;10525;50.154;8.198;2023-01-30T07:27:29;2.20;99.90
20728;DHT22;10525;50.154;8.198;2023-01-30T07:29:56;2.20;99.90
20728;DHT22;10525;50.154;8.198;2023-01-30T07:32:23;2.20;99.90
20728;DHT22;10525;50.154;8.198;2023-01-30T07:34:50;2.20;99.90
20728;DHT22;10525;50.154;8.198;2023-01-30T07:37:18;2.20;99.90
20728;DHT22;10525;50.154;8.198;2023-01-30T07:39:44;2.30;99.90
20728;DHT22;10525;50.154;8.198;2023-01-30T07:42:11;2.30;99.90
20728;DHT22;10525;50.154;8.198;2023-01-30T07:44:37;2.20;99.90
20728;DHT22;10525;50.154;8.198;2023-01-30T07:47:04;2.30;99.90
20728;DHT22;10525;50.154;8.198;2023-01-30T07:49:31;2.30;99.90
20728;DHT22;10525;50.154;8.198;2023-01-30T07:51:57;2.30;99.90
20728;DHT22;10525;50.154;8.198;2023-01-30T07:54:25;2.30;99.90
20728;DHT22;10525;50.154;8.198;2023-01-30T07:56:52;2.30;99.90
20728;DHT22;10525;50.154;8.198;2023-01-30T07:59:19;2.40;99.90
20728;DHT22;10525;50.154;8.198;2023-01-30T08:01:45;2.30;99.90
20728;DHT22;10525;50.154;8.198;2023-01-30T08:04:12;2.40;99.90
20728;DHT22;10525;50.154;8.198;2023-01-30T08:06:38;2.40;99.90
20728;DHT22;10525;50.154;8.198;2023-01-30T08:09:06;2.40;99.90
20728;DHT22;10525;50.154;8.198;2023-01-30T08:11:34;2.40;99.90
20728;DHT22;10525;50.154;8.198;2023-01-30T08:14:00;2.40;99.90
20728;DHT22;10525;50.154;8.198;2023-01-30T08:16:27;2.50;99.90
20728;DHT22;10525;50.154;8.198;2023-01-30T08:18:56;2.50;99.90
20728;DHT22;10525;50.154;8.198;2023-01-30T08:21:23;2.50;99.90
20728;DHT22;10525;50.154;8.198;2023-01-30T08:23:50;2.50;99.90
20728;DHT22;10525;50.154;8.198;2023-01-30T08:26:16;2.60;99.90
20728;DHT22;10525;50.154;8.198;2023-01-30T08:28:44;2.60;99.90
20728;DHT22;10525;50.154;8.198;2023-01-30T08:31:12;2.70;99.90
20728;DHT22;10525;50.154;8.198;2023-01-30T08:33:39;2.70;99.90
20728;DHT22;10525;50.154;8.198;2023-01-30T08:36:07;2.60;99.90
20728;DHT22;10525;50.154;8.198;2023-01-30T08:38:33;2.60;99.90
20728;DHT22;10525;50.154;8.198;2023-01-30T08:41:03;2.60;99.90
20728;DHT22;10525;50.154;8.198;2023-01-30T08:43:31;2.60;99.90
20728;DHT22;10525;50.154;8.198;2023-01-30T08:45:59;2.60;99.90
20728;DHT22;10525;50.154;8.198;2023-01-30T08:48:25;2.60;99.90
20728;DHT22;10525;50.154;8.198;2023-01-30T08:50:53;2.60;99.90
20728;DHT22;10525;50.154;8.198;2023-01-30T08:53:20;2.70;99.90
20728;DHT22;10525;50.154;8.198;2023-01-30T08:55:49;2.60;99.90
20728;DHT22;10525;50.154;8.198;2023-01-30T08:58:15;2.60;99.90
20728;DHT22;10525;50.154;8.198;2023-01-30T09:00:42;2.70;99.90
20728;DHT22;10525;50.154;8.198;2023-01-30T09:03:12;2.60;99.90
20728;DHT22;10525;50.154;8.198;2023-01-30T09:05:39;2.60;99.90
20728;DHT22;10525;50.154;8.198;2023-01-30T09:08:05;2.60;99.90
20728;DHT22;10525;50.154;8.198;2023-01-30T09:10:32;2.60;99.90
20728;DHT22;10525;50.154;8.198;2023-01-30T09:12:59;2.60;99.90
20728;DHT22;10525;50.154;8.198;2023-01-30T09:15:25;2.70;99.90
20728;DHT22;10525;50.154;8.198;2023-01-30T09:17:52;2.80;99.90
20728;DHT22;10525;50.154;8.198;2023-01-30T09:20:20;2.80;99.90
20728;DHT22;10525;50.154;8.198;2023-01-30T09:22:47;2.80;99.90
20728;DHT22;10525;50.154;8.198;2023-01-30T09:25:14;2.80;99.90
20728;DHT22;10525;50.154;8.198;2023-01-30T09:27:41;2.90;99.90
20728;DHT22;10525;50.154;8.198;2023-01-30T09:30:10;2.80;99.90
20728;DHT22;10525;50.154;8.198;2023-01-30T09:32:37;2.80;99.90
20728;DHT22;10525;50.154;8.198;2023-01-30T09:35:04;2.80;99.90
20728;DHT22;10525;50.154;8.198;2023-01-30T09:37:32;2.80;99.90
20728;DHT22;10525;50.154;8.198;2023-01-30T09:39:58;2.80;99.90
20728;DHT22;10525;50.154;8.198;2023-01-30T09:45:29;3.00;99.90
20728;DHT22;10525;50.154;8.198;2023-01-30T09:48:05;3.10;99.90
20728;DHT22;10525;50.154;8.198;2023-01-30T09:50:49;3.20;99.90
20728;DHT22;10525;50.154;8.198;2023-01-30T09:53:22;3.20;99.90
20728;DHT22;10525;50.154;8.198;2023-01-30T09:55:50;3.20;99.90
20728;DHT22;10525;50.154;8.198;2023-01-30T09:58:19;3.20;99.90
20728;DHT22;10525;50.154;8.198;2023-01-30T10:00:47;3.20;99.90
20728;DHT22;10525;50.154;8.198;2023-01-30T10:03:16;3.30;99.90
20728;DHT22;10525;50.154;8.198;2023-01-30T10:05:46;3.20;99.90
20728;DHT22;10525;50.154;8.198;2023-01-30T10:08:41;3.30;99.90
20728;DHT22;10525;50.154;8.198;2023-01-30T10:11:20;3.30;99.90
20728;DHT22;10525;50.154;8.198;2023-01-30T10:16:55;3.50;99.90
20728;DHT22;10525;50.154;8.198;2023-01-30T10:19:48;3.50;99.90
20728;DHT22;10525;50.154;8.198;2023-01-30T10:22:26;3.70;99.90
20728;DHT22;10525;50.154;8.198;2023-01-30T10:25:06;3.90;99.90
20728;DHT22;10525;50.154;8.198;2023-01-30T10:27:50;3.90;99.90
20728;DHT22;10525;50.154;8.198;2023-01-30T10:30:20;4.00;99.90
20728;DHT22;10525;50.154;8.198;2023-01-30T10:32:52;4.00;99.90
20728;DHT22;10525;50.154;8.198;2023-01-30T10:35:22;4.00;99.90
20728;DHT22;10525;50.154;8.198;2023-01-30T10:37:55;4.00;99.90
20728;DHT22;10525;50.154;8.198;2023-01-30T10:40:28;3.90;99.90
20728;DHT22;10525;50.154;8.198;2023-01-30T10:43:02;4.10;99.90
20728;DHT22;10525;50.154;8.198;2023-01-30T10:45:38;4.10;99.90
20728;DHT22;10525;50.154;8.198;2023-01-30T10:48:25;4.10;99.90
20728;DHT22;10525;50.154;8.198;2023-01-30T10:50:58;4.30;99.90
20728;DHT22;10525;50.154;8.198;2023-01-30T10:53:35;4.30;99.90
20728;DHT22;10525;50.154;8.198;2023-01-30T10:56:11;4.30;99.90
20728;DHT22;10525;50.154;8.198;2023-01-30T10:58:46;4.20;99.90
20728;DHT22;10525;50.154;8.198;2023-01-30T11:01:18;4.30;99.90
20728;DHT22;10525;50.154;8.198;2023-01-30T11:03:50;4.30;99.90
20728;DHT22;10525;50.154;8.198;2023-01-30T11:06:21;4.20;99.90
20728;DHT22;10525;50.154;8.198;2023-01-30T11:08:49;4.20;99.90
20728;DHT22;10525;50.154;8.198;2023-01-30T11:11:26;4.30;99.90
20728;DHT22;10525;50.154;8.198;2023-01-30T11:14:04;4.30;99.90
20728;DHT22;10525;50.154;8.198;2023-01-30T11:16:33;4.30;99.90
20728;DHT22;10525;50.154;8.198;2023-01-30T11:19:08;4.40;99.90
20728;DHT22;10525;50.154;8.198;2023-01-30T11:21:35;4.60;99.90
20728;DHT22;10525;50.154;8.198;2023-01-30T11:24:04;4.70;99.90
20728;DHT22;10525;50.154;8.198;2023-01-30T11:26:38;4.70;99.90
20728;DHT22;10525;50.154;8.198;2023-01-30T11:29:24;4.60;99.90
20728;DHT22;10525;50.154;8.198;2023-01-30T11:31:52;4.50;99.90
20728;DHT22;10525;50.154;8.198;2023-01-30T11:34:20;4.60;99.90
20728;DHT22;10525;50.154;8.198;2023-01-30T11:36:48;4.70;99.90
20728;DHT22;10525;50.154;8.198;2023-01-30T11:39:20;4.70;99.90
20728;DHT22;10525;50.154;8.198;2023-01-30T11:42:01;4.80;99.90
20728;DHT22;10525;50.154;8.198;2023-01-30T11:44:31;4.80;99.90
20728;DHT22;10525;50.154;8.198;2023-01-30T11:46:59;4.80;99.90
20728;DHT22;10525;50.154;8.198;2023-01-30T11:49:31;4.90;99.90
20728;DHT22;10525;50.154;8.198;2023-01-30T11:51:59;5.00;99.90
20728;DHT22;10525;50.154;8.198;2023-01-30T11:54:31;5.10;99.90
20728;DHT22;10525;50.154;8.198;2023-01-30T11:57:02;5.20;99.90
20728;DHT22;10525;50.154;8.198;2023-01-30T12:02:15;4.90;99.90
20728;DHT22;10525;50.154;8.198;2023-01-30T12:04:43;4.90;99.90
20728;DHT22;10525;50.154;8.198;2023-01-30T12:07:17;4.80;99.90
20728;DHT22;10525;50.154;8.198;2023-01-30T12:09:45;4.60;99.90
20728;DHT22;10525;50.154;8.198;2023-01-30T12:12:26;4.60;99.90
20728;DHT22;10525;50.154;8.198;2023-01-30T12:15:02;4.50;99.90
20728;DHT22;10525;50.154;8.198;2023-01-30T12:17:36;4.60;99.90
20728;DHT22;10525;50.154;8.198;2023-01-30T12:20:11;4.60;99.90
20728;DHT22;10525;50.154;8.198;2023-01-30T12:22:44;4.70;99.90
20728;DHT22;10525;50.154;8.198;2023-01-30T12:25:15;4.60;99.90
20728;DHT22;10525;50.154;8.198;2023-01-30T12:27:51;4.50;99.90
20728;DHT22;10525;50.154;8.198;2023-01-30T12:30:31;4.50;99.90
20728;DHT22;10525;50.154;8.198;2023-01-30T12:33:01;4.50;99.90
20728;DHT22;10525;50.154;8.198;2023-01-30T12:35:38;4.50;99.90
20728;DHT22;10525;50.154;8.198;2023-01-30T12:38:13;4.50;99.90
20728;DHT22;10525;50.154;8.198;2023-01-30T12:40:49;4.60;99.90
20728;DHT22;10525;50.154;8.198;2023-01-30T12:46:32;4.70;99.90
20728;DHT22;10525;50.154;8.198;2023-01-30T12:49:18;4.70;99.90
20728;DHT22;10525;50.154;8.198;2023-01-30T12:51:56;4.70;99.90
20728;DHT22;10525;50.154;8.198;2023-01-30T12:54:35;4.70;99.90
20728;DHT22;10525;50.154;8.198;2023-01-30T12:57:13;4.60;99.90
20728;DHT22;10525;50.154;8.198;2023-01-30T12:59:53;4.50;99.90
20728;DHT22;10525;50.154;8.198;2023-01-30T13:02:38;4.60;99.90
20728;DHT22;10525;50.154;8.198;2023-01-30T13:05:19;4.70;99.90
20728;DHT22;10525;50.154;8.198;2023-01-30T13:07:59;4.90;99.90
20728;DHT22;10525;50.154;8.198;2023-01-30T13:10:34;5.00;99.90
20728;DHT22;10525;50.154;8.198;2023-01-30T13:13:08;5.10;99.90
20728;DHT22;10525;50.154;8.198;2023-01-30T13:15:43;5.20;99.90
20728;DHT22;10525;50.154;8.198;2023-01-30T13:18:13;5.20;99.90
20728;DHT22;10525;50.154;8.198;2023-01-30T13:20:48;5.10;99.90
20728;DHT22;10525;50.154;8.198;2023-01-30T13:23:20;5.20;99.90
20728;DHT22;10525;50.154;8.198;2023-01-30T13:25:56;5.20;99.90
20728;DHT22;10525;50.154;8.198;2023-01-30T13:28:27;5.20;99.90
20728;DHT22;10525;50.154;8.198;2023-01-30T13:30:59;5.10;99.90
20728;DHT22;10525;50.154;8.198;2023-01-30T13:33:30;5.20;99.90
20728;DHT22;10525;50.154;8.198;2023-01-30T13:36:04;5.20;99.90
20728;DHT22;10525;50.154;8.198;2023-01-30T13:38:33;5.20;99.90
20728;DHT22;10525;50.154;8.198;2023-01-30T13:41:04;5.10;99.90
20728;DHT22;10525;50.154;8.198;2023-01-30T13:43:35;5.00;99.90
20728;DHT22;10525;50.154;8.198;2023-01-30T13:46:08;5.00;99.90
20728;DHT22;10525;50.154;8.198;2023-01-30T13:48:48;5.10;99.90
20728;DHT22;10525;50.154;8.198;2023-01-30T13:51:32;5.00;99.90
20728;DHT22;10525;50.154;8.198;2023-01-30T13:54:07;5.10;99.90
20728;DHT22;10525;50.154;8.198;2023-01-30T13:56:40;5.00;99.90
20728;DHT22;10525;50.154;8.198;2023-01-30T13:59:16;5.10;99.90
20728;DHT22;10525;50.154;8.198;2023-01-30T14:02:12;5.10;99.90
20728;DHT22;10525;50.154;8.198;2023-01-30T14:04:44;5.00;99.90
20728;DHT22;10525;50.154;8.198;2023-01-30T14:07:15;5.00;99.90
20728;DHT22;10525;50.154;8.198;2023-01-30T14:09:45;4.90;99.90
20728;DHT22;10525;50.154;8.198;2023-01-30T14:12:17;4.70;99.90
20728;DHT22;10525;50.154;8.198;2023-01-30T14:14:58;4.60;99.90
20728;DHT22;10525;50.154;8.198;2023-01-30T14:17:27;4.50;99.90
20728;DHT22;10525;50.154;8.198;2023-01-30T14:19:57;4.40;99.90
20728;DHT22;10525;50.154;8.198;2023-01-30T14:22:29;4.40;99.90
20728;DHT22;10525;50.154;8.198;2023-01-30T14:40:43;4.50;99.90
20728;DHT22;10525;50.154;8.198;2023-01-30T14:43:48;4.60;99.90
20728;DHT22;10525;50.154;8.198;2023-01-30T14:46:43;4.60;99.90
20728;DHT22;10525;50.154;8.198;2023-01-30T14:49:20;4.60;99.90
20728;DHT22;10525;50.154;8.198;2023-01-30T14:51:49;4.50;99.90
20728;DHT22;10525;50.154;8.198;2023-01-30T14:54:22;4.40;99.90
20728;DHT22;10525;50.154;8.198;2023-01-30T14:56:54;4.30;99.90
20728;DHT22;10525;50.154;8.198;2023-01-30T14:59:23;4.20;99.90
20728;DHT22;10525;50.154;8.198;2023-01-30T15:02:16;4.10;99.90
20728;DHT22;10525;50.154;8.198;2023-01-30T15:04:48;4.10;99.90
20728;DHT22;10525;50.154;8.198;2023-01-30T15:07:19;4.00;99.90
20728;DHT22;10525;50.154;8.198;2023-01-30T15:09:51;4.00;99.90
20728;DHT22;10525;50.154;8.198;2023-01-30T15:15:19;4.10;99.90
20728;DHT22;10525;50.154;8.198;2023-01-30T15:18:03;4.10;99.90
20728;DHT22;10525;50.154;8.198;2023-01-30T15:20:44;4.10;99.90
20728;DHT22;10525;50.154;8.198;2023-01-30T15:23:29;4.00;99.90
20728;DHT22;10525;50.154;8.198;2023-01-30T15:26:11;4.00;99.90
20728;DHT22;10525;50.154;8.198;2023-01-30T15:28:48;4.10;99.90
20728;DHT22;10525;50.154;8.198;2023-01-30T15:31:19;4.20;99.90
20728;DHT22;10525;50.154;8.198;2023-01-30T15:33:48;4.20;99.90
20728;DHT22;10525;50.154;8.198;2023-01-30T15:36:21;4.20;99.90
20728;DHT22;10525;50.154;8.198;2023-01-30T15:38:55;4.20;99.90
20728;DHT22;10525;50.154;8.198;2023-01-30T15:41:22;4.20;99.90
20728;DHT22;10525;50.154;8.198;2023-01-30T15:44:09;4.20;99.90
20728;DHT22;10525;50.154;8.198;2023-01-30T15:46:46;4.30;99.90
20728;DHT22;10525;50.154;8.198;2023-01-30T15:49:33;4.30;99.90
20728;DHT22;10525;50.154;8.198;2023-01-30T15:52:04;4.40;99.90
20728;DHT22;10525;50.154;8.198;2023-01-30T15:54:32;4.20;99.90
20728;DHT22;10525;50.154;8.198;2023-01-30T15:56:59;4.20;99.90
20728;DHT22;10525;50.154;8.198;2023-01-30T15:59:30;4.10;99.90
20728;DHT22;10525;50.154;8.198;2023-01-30T16:02:02;4.00;99.90
20728;DHT22;10525;50.154;8.198;2023-01-30T16:04:29;4.00;99.90
20728;DHT22;10525;50.154;8.198;2023-01-30T16:06:56;4.00;99.90
20728;DHT22;10525;50.154;8.198;2023-01-30T16:09:24;4.00;99.90
20728;DHT22;10525;50.154;8.198;2023-01-30T16:11:51;4.00;99.90
20728;DHT22;10525;50.154;8.198;2023-01-30T16:14:19;4.00;99.90
20728;DHT22;10525;50.154;8.198;2023-01-30T16:16:50;3.90;99.90
20728;DHT22;10525;50.154;8.198;2023-01-30T16:19:23;3.90;99.90
20728;DHT22;10525;50.154;8.198;2023-01-30T16:21:55;4.00;99.90
20728;DHT22;10525;50.154;8.198;2023-01-30T16:24:25;4.00;99.90
20728;DHT22;10525;50.154;8.198;2023-01-30T16:26:54;4.00;99.90
20728;DHT22;10525;50.154;8.198;2023-01-30T16:29:23;4.00;99.90
20728;DHT22;10525;50.154;8.198;2023-01-30T16:31:53;4.00;99.90
20728;DHT22;10525;50.154;8.198;2023-01-30T16:34:29;4.00;99.90
20728;DHT22;10525;50.154;8.198;2023-01-30T16:37:00;4.10;99.90